PWSweather.com
Personal Weather Stations
Station Observations
WISCHPK61
Green Bay Schmitt Park, Green Bay, WI 54311

Green Bay Schmitt ParkGreen Bay, WI 54311

Lat: 44.514277, Lon: -87.935067

Elevation: 735

Station Type: Acu Rite Pro Weather Center model 02032C

http://greenbayweathercam.com

High Low Average
Temperature 33.1°F0.6°C 19.6°F-6.9°C 26.3°F-3.2°C
Dew Point 32.9°F0.5°C 19.4°F-7.0°C 26.1°F-3.3°C
Winds Calm Calm Calm Calm Calm SWCalm SW
Wind Gusts -- -- --
Humidity 99% 99% 99%
Pressure 29.20 in988.8 mb 29.01 in982.4 mb -
Precipitation 0.00 in0.0 mm - -
Hour Temp Dew Point Humidity Winds Wind Gusts Pressure Precip Precip Rate Daily Precip Total
12:00 AM 20.1°F-6.6°C 19.9°F-6.7°C 99% Calm Calm -- 29.19 in988.5 mb - 0.00 in0.0 mm 0.00 in0.0 mm
01:00 AM 20.5°F-6.4°C 20.3°F-6.5°C 99% Calm Calm -- 29.18 in988.1 mb - 0.00 in0.0 mm 0.00 in0.0 mm
02:00 AM 19.6°F-6.9°C 19.4°F-7.0°C 99% Calm Calm -- 29.18 in988.1 mb - 0.00 in0.0 mm 0.00 in0.0 mm
03:00 AM 20.5°F-6.4°C 20.3°F-6.5°C 99% Calm Calm -- 29.19 in988.5 mb - 0.00 in0.0 mm 0.00 in0.0 mm
04:00 AM 21.2°F-6.0°C 21.0°F-6.1°C 99% Calm Calm -- 29.19 in988.5 mb - 0.00 in0.0 mm 0.00 in0.0 mm
05:00 AM 21.9°F-5.6°C 21.7°F-5.7°C 99% Calm Calm -- 29.18 in988.1 mb - 0.00 in0.0 mm 0.00 in0.0 mm
06:00 AM 22.1°F-5.5°C 21.9°F-5.6°C 99% Calm Calm -- 29.19 in988.5 mb - 0.00 in0.0 mm 0.00 in0.0 mm
07:00 AM 21.2°F-6.0°C 21.0°F-6.1°C 99% Calm Calm -- 29.17 in987.8 mb - 0.00 in0.0 mm 0.00 in0.0 mm
08:00 AM 20.7°F-6.3°C 20.5°F-6.4°C 99% Calm Calm -- 29.18 in988.1 mb - 0.00 in0.0 mm 0.00 in0.0 mm
09:00 AM 20.3°F-6.5°C 20.1°F-6.6°C 99% Calm Calm -- 29.20 in988.8 mb - 0.00 in0.0 mm 0.00 in0.0 mm
10:00 AM 23.4°F-4.8°C 23.2°F-4.9°C 99% Calm Calm -- 29.19 in988.5 mb - 0.00 in0.0 mm 0.00 in0.0 mm
11:00 AM 24.8°F-4.0°C 24.5°F-4.2°C 99% Calm Calm -- 29.18 in988.1 mb - 0.00 in0.0 mm 0.00 in0.0 mm
12:00 PM 26.0°F-3.3°C 25.7°F-3.5°C 99% Calm Calm -- 29.15 in987.1 mb - 0.00 in0.0 mm 0.00 in0.0 mm
01:00 PM 29.8°F-1.2°C 29.6°F-1.3°C 99% Calm Calm -- 29.14 in986.8 mb - 0.00 in0.0 mm 0.00 in0.0 mm
02:00 PM 29.8°F-1.2°C 29.6°F-1.3°C 99% Calm Calm -- 29.10 in985.4 mb - 0.00 in0.0 mm 0.00 in0.0 mm
03:00 PM 33.1°F0.6°C 32.9°F0.5°C 99% Calm Calm -- 29.07 in984.4 mb - 0.00 in0.0 mm 0.00 in0.0 mm
04:00 PM 31.5°F-0.3°C 31.3°F-0.4°C 99% Calm Calm -- 29.05 in983.7 mb - 0.00 in0.0 mm 0.00 in0.0 mm
05:00 PM 30.6°F-0.8°C 30.4°F-0.9°C 99% Calm Calm -- 29.03 in983.1 mb - 0.00 in0.0 mm 0.00 in0.0 mm
06:00 PM 30.0°F-1.1°C 29.8°F-1.2°C 99% Calm Calm -- 29.03 in983.1 mb - 0.00 in0.0 mm 0.00 in0.0 mm
07:00 PM 30.0°F-1.1°C 29.8°F-1.2°C 99% Calm Calm -- 29.03 in983.1 mb - 0.00 in0.0 mm 0.00 in0.0 mm
08:00 PM 30.6°F-0.8°C 30.4°F-0.9°C 99% Calm Calm -- 29.03 in983.1 mb - 0.00 in0.0 mm 0.00 in0.0 mm
09:00 PM 30.9°F-0.6°C 30.7°F-0.7°C 99% Calm Calm -- 29.04 in983.4 mb - 0.00 in0.0 mm 0.00 in0.0 mm
10:00 PM 30.9°F-0.6°C 30.7°F-0.7°C 99% Calm Calm -- 29.04 in983.4 mb - 0.00 in0.0 mm 0.00 in0.0 mm
11:00 PM 30.9°F-0.6°C 30.7°F-0.7°C 99% Calm Calm -- 29.02 in982.7 mb - 0.00 in0.0 mm 0.00 in0.0 mm